createdAt,value
2022-10-19T00:01:40.469Z,11.70
2022-10-19T00:04:29.001Z,12.00
2022-10-19T00:07:18.356Z,12.00
2022-10-19T00:10:06.976Z,12.00
2022-10-19T00:12:55.023Z,12.00
2022-10-19T00:15:43.081Z,12.00
2022-10-19T00:18:31.105Z,12.10
2022-10-19T00:21:20.531Z,12.10
2022-10-19T00:24:10.329Z,11.90
2022-10-19T00:26:58.448Z,12.00
2022-10-19T00:29:46.444Z,12.00
2022-10-19T00:32:34.876Z,12.00
2022-10-19T00:35:23.184Z,11.90
2022-10-19T00:38:11.178Z,12.00
2022-10-19T00:41:00.548Z,11.70
2022-10-19T00:43:53.877Z,12.00
2022-10-19T00:46:43.764Z,12.10
2022-10-19T00:49:34.930Z,12.20
2022-10-19T00:52:25.450Z,12.20
2022-10-19T00:55:14.378Z,12.10
2022-10-19T00:58:04.566Z,12.20
2022-10-19T01:00:52.642Z,12.20
2022-10-19T01:03:41.055Z,12.10
2022-10-19T01:06:29.554Z,12.10
2022-10-19T01:09:17.597Z,12.20
2022-10-19T01:12:11.837Z,12.10
2022-10-19T01:15:13.027Z,12.10
2022-10-19T01:18:07.342Z,12.00
2022-10-19T01:21:18.319Z,12.00
2022-10-19T01:24:27.409Z,12.00
2022-10-19T01:27:42.067Z,12.00
2022-10-19T01:30:43.173Z,12.00
2022-10-19T01:33:44.364Z,12.10
2022-10-19T01:36:41.160Z,12.00
2022-10-19T01:39:36.647Z,11.90
2022-10-19T01:42:29.919Z,11.90
2022-10-19T01:45:22.788Z,11.90
2022-10-19T01:48:16.435Z,11.90
2022-10-19T01:51:08.947Z,12.00
2022-10-19T01:54:00.510Z,12.00
2022-10-19T01:56:50.567Z,12.00
2022-10-19T01:59:40.148Z,11.90
2022-10-19T02:02:29.707Z,11.90
2022-10-19T02:05:22.855Z,11.90
2022-10-19T02:08:15.895Z,11.90
2022-10-19T02:11:04.523Z,11.90
2022-10-19T02:13:57.259Z,11.60
2022-10-19T02:16:49.843Z,11.90
2022-10-19T02:19:38.022Z,11.90
2022-10-19T02:22:27.451Z,11.90
2022-10-19T02:25:16.519Z,11.80
2022-10-19T02:28:05.914Z,11.80
2022-10-19T02:30:54.016Z,11.80
2022-10-19T02:33:42.128Z,11.80
2022-10-19T02:36:30.234Z,11.80
2022-10-19T02:39:19.673Z,11.60
2022-10-19T02:42:13.078Z,11.70
2022-10-19T02:45:07.832Z,11.80
2022-10-19T02:47:59.706Z,11.80
2022-10-19T02:50:48.897Z,11.80
2022-10-19T02:53:36.910Z,11.80
2022-10-19T02:56:26.413Z,11.80
2022-10-19T02:59:14.398Z,11.80
2022-10-19T03:02:02.402Z,12.10
2022-10-19T03:04:50.480Z,11.60
2022-10-19T03:07:38.523Z,11.90
2022-10-19T03:10:26.607Z,11.70
2022-10-19T03:13:15.947Z,11.60
2022-10-19T03:16:08.738Z,11.70
2022-10-19T03:18:56.753Z,11.70
2022-10-19T03:21:44.850Z,11.80
2022-10-19T03:24:33.107Z,11.60
2022-10-19T03:27:21.131Z,11.70
2022-10-19T03:30:11.403Z,11.60
2022-10-19T03:32:59.490Z,11.70
2022-10-19T03:35:47.528Z,11.50
2022-10-19T03:38:35.526Z,11.40
2022-10-19T03:41:25.608Z,11.70
2022-10-19T03:44:13.881Z,11.60
2022-10-19T03:47:03.238Z,11.70
2022-10-19T03:49:51.472Z,11.70
2022-10-19T03:52:39.474Z,11.60
2022-10-19T03:55:27.470Z,11.70
2022-10-19T03:58:15.467Z,11.70
2022-10-19T04:01:07.585Z,11.70
2022-10-19T04:03:58.648Z,11.70
2022-10-19T04:09:36.210Z,11.60
2022-10-19T04:12:24.227Z,11.60
2022-10-19T04:15:12.370Z,11.60
2022-10-19T04:18:00.389Z,11.80
2022-10-19T04:20:49.730Z,11.60
2022-10-19T04:23:39.037Z,11.60
2022-10-19T04:26:27.722Z,11.60
2022-10-19T04:29:17.391Z,11.60
2022-10-19T04:32:05.594Z,11.60
2022-10-19T04:34:53.611Z,11.60
2022-10-19T04:37:42.975Z,11.50
2022-10-19T04:40:30.980Z,11.60
2022-10-19T04:43:19.018Z,11.60
2022-10-19T04:46:08.947Z,11.40
2022-10-19T04:48:57.845Z,11.60
2022-10-19T04:51:45.883Z,11.60
2022-10-19T04:54:35.215Z,11.50
2022-10-19T04:57:23.261Z,11.50
2022-10-19T05:00:12.460Z,11.50
2022-10-19T05:03:00.491Z,11.50
2022-10-19T05:05:48.540Z,11.50
2022-10-19T05:08:37.483Z,11.30
2022-10-19T05:11:27.440Z,11.40
2022-10-19T05:14:15.469Z,11.40
2022-10-19T05:17:03.523Z,11.50
2022-10-19T05:19:51.540Z,11.50
2022-10-19T05:22:39.850Z,11.30
2022-10-19T05:25:27.867Z,11.50
2022-10-19T05:28:17.203Z,11.50
2022-10-19T05:31:09.879Z,11.40
2022-10-19T05:33:58.401Z,11.40
2022-10-19T05:36:46.526Z,11.40
2022-10-19T05:39:34.550Z,11.40
2022-10-19T05:42:22.661Z,11.50
2022-10-19T05:45:12.239Z,11.40
2022-10-19T05:48:00.245Z,11.40
2022-10-19T05:50:54.399Z,11.40
2022-10-19T05:53:43.251Z,11.50
2022-10-19T05:56:33.421Z,11.50
2022-10-19T05:59:22.498Z,11.50
2022-10-19T06:02:14.452Z,11.50
2022-10-19T06:05:02.822Z,11.50
2022-10-19T06:07:50.891Z,11.50
2022-10-19T06:10:38.928Z,11.50
2022-10-19T06:13:26.995Z,11.50
2022-10-19T06:16:16.956Z,11.50
2022-10-19T06:19:07.068Z,11.50
2022-10-19T06:21:55.091Z,11.50
2022-10-19T06:24:43.099Z,11.50
2022-10-19T06:27:33.501Z,11.60
2022-10-19T06:30:21.768Z,11.50
2022-10-19T06:33:10.016Z,11.60
2022-10-19T06:36:06.586Z,11.60
2022-10-19T06:38:54.643Z,11.60
2022-10-19T06:41:42.818Z,11.60
2022-10-19T06:44:30.851Z,11.60
2022-10-19T06:47:18.882Z,11.60
2022-10-19T06:50:08.326Z,11.60
2022-10-19T06:52:58.534Z,11.60
2022-10-19T06:55:46.553Z,11.80
2022-10-19T06:58:36.408Z,11.60
2022-10-19T07:01:25.098Z,11.60
2022-10-19T07:04:13.181Z,11.60
2022-10-19T07:07:01.228Z,11.60
2022-10-19T07:09:50.602Z,11.30
2022-10-19T07:12:38.876Z,11.60
2022-10-19T07:15:26.888Z,11.60
2022-10-19T07:18:15.351Z,11.50
2022-10-19T07:21:05.518Z,11.70
2022-10-19T07:23:53.652Z,11.70
2022-10-19T07:26:42.978Z,11.70
2022-10-19T07:29:31.013Z,11.60
2022-10-19T07:32:19.006Z,11.80
2022-10-19T07:35:07.865Z,11.90
2022-10-19T07:37:55.875Z,11.90
2022-10-19T07:40:46.550Z,11.80
2022-10-19T07:43:36.953Z,11.90
2022-10-19T07:46:27.183Z,11.80
2022-10-19T07:49:18.919Z,12.00
2022-10-19T07:52:06.972Z,11.90
2022-10-19T07:54:55.439Z,12.00
2022-10-19T07:57:44.963Z,12.10
2022-10-19T08:00:34.461Z,12.10
2022-10-19T08:06:31.585Z,12.10
2022-10-19T08:09:47.209Z,12.40
2022-10-19T08:12:27.803Z,12.20
2022-10-19T08:15:15.966Z,12.40
2022-10-19T08:18:05.380Z,12.40
2022-10-19T08:20:53.439Z,12.40
2022-10-19T08:23:42.401Z,12.40
2022-10-19T08:26:31.967Z,12.40
2022-10-19T08:29:21.852Z,12.50
2022-10-19T08:32:10.335Z,12.50
2022-10-19T08:34:59.691Z,12.60
2022-10-19T08:37:48.017Z,12.60
2022-10-19T08:40:36.453Z,12.50
2022-10-19T08:43:33.612Z,12.50
2022-10-19T08:46:26.215Z,12.50
2022-10-19T08:49:19.889Z,12.60
2022-10-19T08:52:14.544Z,12.60
2022-10-19T08:55:06.093Z,12.60
2022-10-19T08:58:01.700Z,12.70
2022-10-19T09:00:56.171Z,12.70
2022-10-19T09:03:56.865Z,12.70
2022-10-19T09:06:53.341Z,12.80
2022-10-19T09:12:43.405Z,13.00
2022-10-19T09:15:39.909Z,13.20
2022-10-19T09:18:30.696Z,13.20
2022-10-19T09:21:30.890Z,13.20
2022-10-19T09:24:38.619Z,13.30
2022-10-19T09:27:34.201Z,13.20
2022-10-19T09:30:24.465Z,13.30
2022-10-19T09:33:19.366Z,13.30
2022-10-19T09:36:08.562Z,13.40
2022-10-19T09:38:56.698Z,13.40
2022-10-19T09:41:47.992Z,13.40
2022-10-19T09:44:37.524Z,13.40
2022-10-19T09:47:34.703Z,13.40
2022-10-19T09:50:24.881Z,13.40
2022-10-19T09:53:19.665Z,13.40
2022-10-19T09:56:09.731Z,13.30
2022-10-19T09:58:59.839Z,13.20
2022-10-19T10:04:57.472Z,13.20
2022-10-19T10:07:46.052Z,13.20
2022-10-19T10:10:39.373Z,13.30
2022-10-19T10:13:28.552Z,13.30
2022-10-19T10:16:19.305Z,13.60
2022-10-19T10:19:13.635Z,13.80
2022-10-19T10:22:03.841Z,13.90
2022-10-19T10:24:53.695Z,13.90
2022-10-19T10:27:41.811Z,13.90
2022-10-19T10:30:34.333Z,13.70
2022-10-19T10:33:40.436Z,13.60
2022-10-19T10:36:33.450Z,13.60
2022-10-19T10:39:21.936Z,13.50
2022-10-19T10:42:15.770Z,13.60
2022-10-19T10:45:05.251Z,13.50
2022-10-19T10:47:54.481Z,13.60
2022-10-19T10:50:42.683Z,13.70
2022-10-19T10:53:39.961Z,13.70
2022-10-19T10:56:29.863Z,13.80
2022-10-19T10:59:23.976Z,13.90
2022-10-19T11:02:20.155Z,14.00
2022-10-19T11:05:13.813Z,13.80
2022-10-19T11:08:06.028Z,13.90
2022-10-19T11:11:01.448Z,14.00
2022-10-19T11:13:53.774Z,14.00
2022-10-19T11:16:45.965Z,13.90
2022-10-19T11:19:37.106Z,13.90
2022-10-19T11:22:30.983Z,13.90
2022-10-19T11:25:33.783Z,14.00
2022-10-19T11:28:46.375Z,14.10
2022-10-19T11:31:45.840Z,14.30
2022-10-19T11:34:45.848Z,14.60
2022-10-19T11:37:49.479Z,14.60
2022-10-19T11:44:27.382Z,14.70
2022-10-19T11:47:31.207Z,14.90
2022-10-19T11:50:32.084Z,14.90
2022-10-19T11:53:31.871Z,15.00
2022-10-19T11:56:39.133Z,14.90
2022-10-19T11:59:44.669Z,14.90
2022-10-19T12:03:01.563Z,14.80
2022-10-19T12:06:04.117Z,14.70
2022-10-19T12:09:05.853Z,14.50
2022-10-19T12:12:09.653Z,14.40
2022-10-19T12:15:17.731Z,14.40
2022-10-19T12:18:13.473Z,14.40
2022-10-19T12:21:05.535Z,14.40
2022-10-19T12:23:55.616Z,14.40
2022-10-19T12:26:45.779Z,14.50
2022-10-19T12:29:37.551Z,14.60
2022-10-19T12:32:30.124Z,13.70
2022-10-19T12:35:35.162Z,14.80
2022-10-19T12:38:30.396Z,14.90
2022-10-19T12:41:24.624Z,14.80
2022-10-19T12:44:39.061Z,14.80
2022-10-19T12:47:28.514Z,14.70
2022-10-19T12:50:17.250Z,14.90
2022-10-19T12:53:05.917Z,14.90
2022-10-19T12:56:01.984Z,15.10
2022-10-19T12:58:54.512Z,15.20
2022-10-19T13:01:45.103Z,15.10
2022-10-19T13:04:36.296Z,15.20
2022-10-19T13:07:27.119Z,15.10
2022-10-19T13:10:21.818Z,15.10
2022-10-19T13:13:54.510Z,15.00
2022-10-19T13:17:08.296Z,15.00
2022-10-19T13:20:48.957Z,15.00
2022-10-19T13:23:42.059Z,15.00
2022-10-19T13:26:35.524Z,15.00
2022-10-19T13:29:27.768Z,15.10
2022-10-19T13:32:40.031Z,15.00
2022-10-19T13:35:33.163Z,14.70
2022-10-19T13:38:27.329Z,14.60
2022-10-19T13:41:21.804Z,14.50
2022-10-19T13:44:21.566Z,14.50
2022-10-19T13:47:39.621Z,14.60
2022-10-19T13:50:38.850Z,14.60
2022-10-19T13:53:42.010Z,14.70
2022-10-19T13:56:43.106Z,15.10
2022-10-19T14:00:01.665Z,15.70
2022-10-19T14:03:03.597Z,16.10
2022-10-19T14:06:13.334Z,16.40
2022-10-19T14:09:29.409Z,16.50
2022-10-19T14:12:23.388Z,16.80
2022-10-19T14:15:30.437Z,17.10
2022-10-19T14:18:25.115Z,17.40
2022-10-19T14:21:14.454Z,17.50
2022-10-19T14:24:02.543Z,17.60
2022-10-19T14:26:50.582Z,17.90
2022-10-19T14:29:46.043Z,17.90
2022-10-19T14:32:35.813Z,18.20
2022-10-19T14:35:28.093Z,18.20
2022-10-19T14:38:21.276Z,17.80
2022-10-19T14:41:21.752Z,17.40
2022-10-19T14:44:38.582Z,17.00
2022-10-19T14:47:27.525Z,16.60
2022-10-19T14:50:15.865Z,16.20
2022-10-19T14:53:17.514Z,15.90
2022-10-19T14:56:11.027Z,15.70
2022-10-19T14:59:03.200Z,15.40
2022-10-19T15:01:52.198Z,15.20
2022-10-19T15:04:40.655Z,14.90
2022-10-19T15:07:36.503Z,14.90
2022-10-19T15:10:29.446Z,14.80
2022-10-19T15:13:26.595Z,14.70
2022-10-19T15:16:45.228Z,14.50
2022-10-19T15:19:40.842Z,14.50
2022-10-19T15:22:40.366Z,14.40
2022-10-19T15:25:36.736Z,14.30
2022-10-19T15:28:39.072Z,14.30
2022-10-19T15:31:30.938Z,14.20
2022-10-19T15:34:24.682Z,14.20
2022-10-19T15:37:19.679Z,14.20
2022-10-19T15:40:12.850Z,14.00
2022-10-19T15:43:01.352Z,14.00
2022-10-19T15:46:01.084Z,14.00
2022-10-19T15:48:53.662Z,13.90
2022-10-19T15:51:47.095Z,13.80
2022-10-19T15:54:35.119Z,13.80
2022-10-19T15:57:27.694Z,13.70
2022-10-19T16:00:18.035Z,13.60
2022-10-19T16:03:07.485Z,13.50
2022-10-19T16:05:56.251Z,13.40
2022-10-19T16:08:46.188Z,13.30
2022-10-19T16:11:35.353Z,13.20
2022-10-19T16:14:23.446Z,13.10
2022-10-19T16:17:13.275Z,13.00
2022-10-19T16:20:02.604Z,13.00
2022-10-19T16:22:51.068Z,12.90
2022-10-19T16:25:39.095Z,12.80
2022-10-19T16:28:27.156Z,12.70
2022-10-19T16:31:15.627Z,12.60
2022-10-19T16:34:03.694Z,12.60
2022-10-19T16:36:53.054Z,12.50
2022-10-19T16:39:41.073Z,12.50
2022-10-19T16:42:30.595Z,12.30
2022-10-19T16:45:18.842Z,12.30
2022-10-19T16:48:07.127Z,12.20
2022-10-19T16:51:22.256Z,12.10
2022-10-19T16:54:12.418Z,12.10
2022-10-19T16:57:00.461Z,12.00
2022-10-19T17:02:46.516Z,11.90
2022-10-19T17:05:38.730Z,12.00
2022-10-19T17:08:37.197Z,11.80
2022-10-19T17:11:37.757Z,11.80
2022-10-19T17:14:25.769Z,11.70
2022-10-19T17:17:13.819Z,10.90
2022-10-19T17:20:01.892Z,11.50
2022-10-19T17:22:52.659Z,11.50
2022-10-19T17:25:47.827Z,11.50
2022-10-19T17:28:37.885Z,11.50
2022-10-19T17:31:26.819Z,11.50
2022-10-19T17:34:15.053Z,11.50
2022-10-19T17:37:03.076Z,11.40
2022-10-19T17:39:51.495Z,11.40
2022-10-19T17:42:39.521Z,11.30
2022-10-19T17:45:28.850Z,11.40
2022-10-19T17:48:16.898Z,11.50
2022-10-19T17:51:07.098Z,11.30
2022-10-19T17:53:57.001Z,11.30
2022-10-19T17:56:45.850Z,11.30
2022-10-19T17:59:40.648Z,11.30
2022-10-19T18:02:44.282Z,11.30
2022-10-19T18:05:32.399Z,11.20
2022-10-19T18:08:20.448Z,11.40
2022-10-19T18:11:10.895Z,11.10
2022-10-19T18:14:01.459Z,11.00
2022-10-19T18:16:52.020Z,11.00
2022-10-19T18:19:41.386Z,11.00
2022-10-19T18:22:29.505Z,10.90
2022-10-19T18:25:21.751Z,10.90
2022-10-19T18:28:19.235Z,10.80
2022-10-19T18:31:08.557Z,10.70
2022-10-19T18:33:58.234Z,10.70
2022-10-19T18:36:47.884Z,10.70
2022-10-19T18:39:35.886Z,10.70
2022-10-19T18:42:23.915Z,10.70
2022-10-19T18:45:12.150Z,10.60
2022-10-19T18:48:00.244Z,10.60
2022-10-19T18:50:48.373Z,10.50
2022-10-19T18:53:37.785Z,10.50
2022-10-19T18:56:26.326Z,10.50
2022-10-19T18:59:14.393Z,10.40
2022-10-19T19:02:02.501Z,10.60
2022-10-19T19:04:50.787Z,10.40
2022-10-19T19:07:39.524Z,10.30
2022-10-19T19:10:28.919Z,10.30
2022-10-19T19:13:16.936Z,10.30
2022-10-19T19:16:05.947Z,10.30
2022-10-19T19:18:54.990Z,10.20
2022-10-19T19:21:44.551Z,10.20
2022-10-19T19:24:32.989Z,10.20
2022-10-19T19:27:26.153Z,10.20
2022-10-19T19:30:16.445Z,10.10
2022-10-19T19:33:04.497Z,10.10
2022-10-19T19:35:52.935Z,10.10
2022-10-19T19:38:41.181Z,10.20
2022-10-19T19:41:31.160Z,10.10
2022-10-19T19:44:20.608Z,10.00
2022-10-19T19:47:08.618Z,10.00
2022-10-19T19:49:56.635Z,10.00
2022-10-19T19:52:44.652Z,10.00
2022-10-19T19:55:38.895Z,10.00
2022-10-19T19:58:27.331Z,10.00
2022-10-19T20:01:19.528Z,9.90
2022-10-19T20:04:07.815Z,9.90
2022-10-19T20:06:55.863Z,9.80
2022-10-19T20:09:43.889Z,9.80
2022-10-19T20:12:31.899Z,9.70
2022-10-19T20:15:20.026Z,9.80
2022-10-19T20:18:09.654Z,9.70
2022-10-19T20:21:02.191Z,9.70
2022-10-19T20:23:50.523Z,9.60
2022-10-19T20:26:38.587Z,9.60
2022-10-19T20:29:26.666Z,9.60
2022-10-19T20:32:14.675Z,9.50
2022-10-19T20:35:04.547Z,9.50
2022-10-19T20:37:52.808Z,9.50
2022-10-19T20:40:41.290Z,9.40
2022-10-19T20:43:29.296Z,9.50
2022-10-19T20:46:19.211Z,9.50
2022-10-19T20:49:07.480Z,9.50
2022-10-19T20:51:56.947Z,9.50
2022-10-19T20:54:45.095Z,9.50
2022-10-19T20:57:33.170Z,9.50
2022-10-19T21:00:21.199Z,9.50
2022-10-19T21:03:09.224Z,9.60
2022-10-19T21:05:57.246Z,9.50
2022-10-19T21:08:46.892Z,9.50
2022-10-19T21:11:37.143Z,9.50
2022-10-19T21:14:28.464Z,9.40
2022-10-19T21:17:17.263Z,9.40
2022-10-19T21:20:05.756Z,9.40
2022-10-19T21:22:53.787Z,9.30
2022-10-19T21:25:53.824Z,9.30
2022-10-19T21:28:46.342Z,9.30
2022-10-19T21:31:34.398Z,9.30
2022-10-19T21:34:24.514Z,9.30
2022-10-19T21:37:12.717Z,9.30
2022-10-19T21:40:00.800Z,9.30
2022-10-19T21:42:50.147Z,9.30
2022-10-19T21:45:38.894Z,9.30
2022-10-19T21:48:26.937Z,9.20
2022-10-19T21:51:23.433Z,9.40
2022-10-19T21:54:14.195Z,9.20
2022-10-19T21:57:03.030Z,9.20
2022-10-19T21:59:52.370Z,9.20
2022-10-19T22:02:40.420Z,9.20
2022-10-19T22:05:28.439Z,9.20
2022-10-19T22:08:16.499Z,9.10
2022-10-19T22:11:09.267Z,9.10
2022-10-19T22:13:58.087Z,9.10
2022-10-19T22:16:47.803Z,9.10
2022-10-19T22:19:36.034Z,9.10
2022-10-19T22:22:24.119Z,9.10
2022-10-19T22:25:12.238Z,9.10
2022-10-19T22:28:00.374Z,9.10
2022-10-19T22:30:53.976Z,9.00
2022-10-19T22:33:43.441Z,8.90
2022-10-19T22:36:31.584Z,8.90
2022-10-19T22:39:19.759Z,8.90
2022-10-19T22:42:08.013Z,8.90
2022-10-19T22:44:56.184Z,8.90
2022-10-19T22:47:44.341Z,8.90
2022-10-19T22:50:33.917Z,8.80
2022-10-19T22:53:22.272Z,8.80
2022-10-19T22:56:12.423Z,8.70
2022-10-19T22:59:01.365Z,8.70
2022-10-19T23:01:49.570Z,8.60
2022-10-19T23:04:37.741Z,8.60
2022-10-19T23:07:27.231Z,8.60
2022-10-19T23:10:15.451Z,8.50
2022-10-19T23:13:03.575Z,8.60
2022-10-19T23:15:51.736Z,8.60
2022-10-19T23:18:42.027Z,8.60
2022-10-19T23:21:30.346Z,8.50
2022-10-19T23:24:19.810Z,8.50
2022-10-19T23:27:08.093Z,8.50
2022-10-19T23:29:56.257Z,8.50
2022-10-19T23:32:44.525Z,8.50
2022-10-19T23:35:32.739Z,8.50
2022-10-19T23:38:20.935Z,8.50
2022-10-19T23:41:10.624Z,8.50
2022-10-19T23:43:58.715Z,8.50
2022-10-19T23:46:46.774Z,8.50
2022-10-19T23:49:34.799Z,8.40
2022-10-19T23:52:22.842Z,8.40
2022-10-19T23:55:10.943Z,8.40
2022-10-19T23:58:00.323Z,8.40
